createdAt,value
2022-10-09T00:02:29.097Z,48.12
2022-10-09T00:04:58.953Z,48.12
2022-10-09T00:07:28.737Z,48.40
2022-10-09T00:09:58.452Z,48.41
2022-10-09T00:12:31.091Z,48.45
2022-10-09T00:15:01.119Z,48.29
2022-10-09T00:17:30.912Z,48.33
2022-10-09T00:20:00.649Z,48.45
2022-10-09T00:22:31.002Z,48.49
2022-10-09T00:25:00.833Z,48.31
2022-10-09T00:27:33.144Z,48.51
2022-10-09T00:30:03.382Z,48.58
2022-10-09T00:32:33.431Z,48.46
2022-10-09T00:35:03.274Z,48.70
2022-10-09T00:37:33.057Z,48.59
2022-10-09T00:40:03.502Z,48.55
2022-10-09T00:42:35.967Z,48.70
2022-10-09T00:45:06.704Z,48.75
2022-10-09T00:47:44.349Z,48.88
2022-10-09T00:50:20.280Z,48.75
2022-10-09T00:52:53.371Z,48.63
2022-10-09T00:55:25.592Z,48.95
2022-10-09T00:58:05.236Z,49.04
2022-10-09T01:00:35.374Z,48.99
2022-10-09T01:03:05.181Z,49.01
2022-10-09T01:05:46.336Z,49.22
2022-10-09T01:08:22.969Z,49.09
2022-10-09T01:11:02.253Z,49.04
2022-10-09T01:13:39.149Z,49.00
2022-10-09T01:16:21.556Z,48.73
2022-10-09T01:19:01.012Z,48.67
2022-10-09T01:21:37.829Z,48.75
2022-10-09T01:24:19.608Z,48.74
2022-10-09T01:27:07.884Z,48.93
2022-10-09T01:29:43.633Z,48.99
2022-10-09T01:32:15.892Z,48.85
2022-10-09T01:34:47.738Z,48.96
2022-10-09T01:37:19.457Z,49.04
2022-10-09T01:39:50.323Z,48.92
2022-10-09T01:42:25.274Z,48.97
2022-10-09T01:44:55.075Z,48.75
2022-10-09T01:47:25.795Z,49.08
2022-10-09T01:50:00.947Z,48.97
2022-10-09T01:52:41.940Z,49.05
2022-10-09T01:55:25.316Z,48.90
2022-10-09T01:58:06.289Z,49.07
2022-10-09T02:00:40.248Z,49.16
2022-10-09T02:03:14.687Z,49.22
2022-10-09T02:05:47.414Z,49.15
2022-10-09T02:08:21.043Z,49.23
2022-10-09T02:10:55.359Z,49.22
2022-10-09T02:13:28.039Z,49.19
2022-10-09T02:16:03.441Z,49.11
2022-10-09T02:18:40.774Z,49.35
2022-10-09T02:21:16.118Z,49.24
2022-10-09T02:23:51.714Z,49.26
2022-10-09T02:26:22.363Z,49.29
2022-10-09T02:28:55.064Z,49.27
2022-10-09T02:31:28.790Z,49.22
2022-10-09T02:33:59.369Z,49.23
2022-10-09T02:36:30.509Z,49.33
2022-10-09T02:39:00.943Z,49.26
2022-10-09T02:41:31.404Z,49.13
2022-10-09T02:44:04.292Z,49.50
2022-10-09T02:46:34.702Z,49.57
2022-10-09T02:49:04.587Z,50.04
2022-10-09T02:51:34.814Z,50.27
2022-10-09T02:54:05.107Z,50.32
2022-10-09T02:56:38.807Z,49.99
2022-10-09T02:59:12.169Z,50.45
2022-10-09T03:01:42.056Z,50.07
2022-10-09T03:04:12.966Z,50.09
2022-10-09T03:06:42.737Z,50.19
2022-10-09T03:09:12.503Z,50.59
2022-10-09T03:11:42.278Z,50.12
2022-10-09T03:14:14.771Z,50.20
2022-10-09T03:16:44.578Z,50.34
2022-10-09T03:19:14.404Z,50.22
2022-10-09T03:21:44.212Z,50.31
2022-10-09T03:24:14.344Z,50.37
2022-10-09T03:26:44.079Z,50.46
2022-10-09T03:29:16.499Z,50.28
2022-10-09T03:31:52.401Z,50.05
2022-10-09T03:34:22.884Z,50.02
2022-10-09T03:36:53.029Z,50.00
2022-10-09T03:39:22.859Z,49.98
2022-10-09T03:41:52.726Z,50.12
2022-10-09T03:44:25.128Z,49.87
2022-10-09T03:46:55.405Z,50.27
2022-10-09T03:49:25.253Z,50.07
2022-10-09T03:51:55.049Z,50.21
2022-10-09T03:54:24.866Z,49.99
2022-10-09T03:56:54.611Z,50.20
2022-10-09T03:59:27.259Z,50.09
2022-10-09T04:01:57.068Z,49.71
2022-10-09T04:04:26.879Z,49.97
2022-10-09T04:06:56.669Z,50.16
2022-10-09T04:09:26.485Z,50.17
2022-10-09T04:11:56.358Z,49.76
2022-10-09T04:14:28.695Z,50.13
2022-10-09T04:16:58.511Z,49.62
2022-10-09T04:19:28.283Z,49.50
2022-10-09T04:21:58.043Z,49.33
2022-10-09T04:24:27.798Z,49.68
2022-10-09T04:26:57.601Z,49.54
2022-10-09T04:29:30.030Z,49.48
2022-10-09T04:31:59.893Z,49.58
2022-10-09T04:34:29.686Z,49.62
2022-10-09T04:36:59.582Z,49.39
2022-10-09T04:39:29.588Z,49.52
2022-10-09T04:41:59.491Z,49.23
2022-10-09T04:44:31.892Z,49.41
2022-10-09T04:47:01.750Z,49.10
2022-10-09T04:49:31.535Z,49.27
2022-10-09T04:52:01.345Z,49.08
2022-10-09T04:54:31.138Z,49.70
2022-10-09T04:57:00.947Z,50.23
2022-10-09T04:59:33.587Z,49.57
2022-10-09T05:02:03.831Z,49.67
2022-10-09T05:04:33.720Z,49.59
2022-10-09T05:07:03.536Z,49.48
2022-10-09T05:09:33.341Z,49.73
2022-10-09T05:12:03.111Z,49.74
2022-10-09T05:14:35.443Z,49.67
2022-10-09T05:17:14.587Z,49.36
2022-10-09T05:19:44.787Z,49.63
2022-10-09T05:22:14.657Z,49.59
2022-10-09T05:24:44.393Z,49.50
2022-10-09T05:27:14.212Z,49.47
2022-10-09T05:29:46.700Z,49.86
2022-10-09T05:32:16.978Z,49.48
2022-10-09T05:34:46.869Z,49.32
2022-10-09T05:37:16.595Z,49.70
2022-10-09T05:39:46.378Z,49.34
2022-10-09T05:42:16.341Z,49.61
2022-10-09T05:44:48.702Z,49.25
2022-10-09T05:47:19.817Z,49.31
2022-10-09T05:49:49.584Z,49.08
2022-10-09T05:52:19.433Z,49.12
2022-10-09T05:54:49.236Z,48.93
2022-10-09T05:57:19.032Z,49.07
2022-10-09T05:59:51.369Z,48.62
2022-10-09T06:02:21.148Z,48.11
2022-10-09T06:04:51.030Z,47.96
2022-10-09T06:07:20.785Z,47.77
2022-10-09T06:09:50.580Z,47.55
2022-10-09T06:12:20.359Z,47.38
2022-10-09T06:14:52.777Z,47.20
2022-10-09T06:17:22.639Z,46.97
2022-10-09T06:19:52.426Z,47.19
2022-10-09T06:22:22.203Z,47.28
2022-10-09T06:24:52.048Z,47.02
2022-10-09T06:27:21.778Z,46.89
2022-10-09T06:29:56.059Z,46.90
2022-10-09T06:32:25.916Z,46.86
2022-10-09T06:34:57.419Z,46.85
2022-10-09T06:37:27.180Z,46.78
2022-10-09T06:39:57.408Z,46.73
2022-10-09T06:42:27.201Z,46.68
2022-10-09T06:45:03.046Z,46.68
2022-10-09T06:47:33.113Z,46.38
2022-10-09T06:50:03.000Z,46.04
2022-10-09T06:52:32.713Z,46.63
2022-10-09T06:55:02.419Z,46.28
2022-10-09T06:57:32.227Z,45.73
2022-10-09T07:00:05.132Z,45.78
2022-10-09T07:02:36.583Z,45.63
2022-10-09T07:05:10.091Z,45.18
2022-10-09T07:07:43.199Z,44.82
2022-10-09T07:10:13.508Z,45.14
2022-10-09T07:12:43.244Z,45.00
2022-10-09T07:15:18.744Z,44.75
2022-10-09T07:17:51.855Z,44.49
2022-10-09T07:20:21.645Z,44.65
2022-10-09T07:22:51.620Z,44.08
2022-10-09T07:25:21.566Z,44.11
2022-10-09T07:27:51.329Z,44.02
2022-10-09T07:30:23.748Z,43.45
2022-10-09T07:32:54.730Z,43.66
2022-10-09T07:35:24.596Z,44.09
2022-10-09T07:37:54.608Z,43.61
2022-10-09T07:40:26.086Z,43.84
2022-10-09T07:42:56.131Z,43.55
2022-10-09T07:45:28.925Z,42.47
2022-10-09T07:47:59.041Z,42.87
2022-10-09T07:50:28.856Z,42.32
2022-10-09T07:52:58.571Z,42.92
2022-10-09T07:55:28.583Z,42.54
2022-10-09T07:57:58.431Z,42.44
2022-10-09T08:00:30.906Z,42.00
2022-10-09T08:03:00.716Z,41.67
2022-10-09T08:05:30.618Z,42.05
2022-10-09T08:08:02.428Z,42.10
2022-10-09T08:10:32.940Z,41.97
2022-10-09T08:13:02.813Z,42.04
2022-10-09T08:15:35.248Z,41.90
2022-10-09T08:18:05.035Z,41.97
2022-10-09T08:20:34.805Z,41.95
2022-10-09T08:23:04.654Z,41.63
2022-10-09T08:25:37.263Z,41.11
2022-10-09T08:28:07.846Z,40.93
2022-10-09T08:30:40.227Z,40.82
2022-10-09T08:33:10.026Z,40.74
2022-10-09T08:35:39.898Z,40.42
2022-10-09T08:38:17.809Z,40.30
2022-10-09T08:41:07.633Z,39.79
2022-10-09T08:43:41.444Z,40.04
2022-10-09T08:46:23.268Z,39.30
2022-10-09T08:48:54.777Z,39.06
2022-10-09T08:51:29.451Z,39.03
2022-10-09T08:54:04.542Z,38.37
2022-10-09T08:56:36.893Z,38.49
2022-10-09T08:59:06.859Z,38.03
2022-10-09T09:01:48.199Z,37.90
2022-10-09T09:04:37.919Z,37.67
2022-10-09T09:07:16.658Z,37.12
2022-10-09T09:09:55.263Z,36.41
2022-10-09T09:12:36.635Z,36.43
2022-10-09T09:15:27.314Z,35.94
2022-10-09T09:18:09.519Z,35.49
2022-10-09T09:20:51.701Z,34.97
2022-10-09T09:23:27.588Z,35.07
2022-10-09T09:25:59.717Z,34.53
2022-10-09T09:28:33.162Z,33.62
2022-10-09T09:31:09.417Z,33.74
2022-10-09T09:33:46.793Z,32.33
2022-10-09T09:36:23.758Z,32.05
2022-10-09T09:39:44.255Z,30.13
2022-10-09T09:41:46.322Z,29.05
2022-10-09T09:44:17.706Z,28.74
2022-10-09T09:46:50.558Z,26.33
2022-10-09T09:49:27.865Z,25.61
2022-10-09T09:51:59.786Z,24.82
2022-10-09T09:54:36.062Z,24.98
2022-10-09T09:57:19.495Z,24.40
2022-10-09T09:59:50.981Z,24.09
2022-10-09T10:02:22.984Z,24.56
2022-10-09T10:05:00.285Z,23.11
2022-10-09T10:07:31.553Z,22.59
2022-10-09T10:10:09.112Z,23.12
2022-10-09T10:12:44.234Z,23.14
2022-10-09T10:15:22.899Z,22.41
2022-10-09T10:18:00.305Z,21.44
2022-10-09T10:20:35.298Z,21.90
2022-10-09T10:23:05.101Z,21.77
2022-10-09T10:25:36.754Z,21.02
2022-10-09T10:28:15.932Z,20.76
2022-10-09T10:30:47.035Z,19.82
2022-10-09T10:33:21.891Z,19.98
2022-10-09T10:35:57.966Z,20.48
2022-10-09T10:38:32.788Z,22.59
2022-10-09T10:41:14.085Z,24.70
2022-10-09T10:43:46.936Z,25.22
2022-10-09T10:46:25.266Z,25.63
2022-10-09T10:48:55.468Z,25.10
2022-10-09T10:51:59.487Z,26.55
2022-10-09T10:54:39.213Z,27.11
2022-10-09T10:57:15.579Z,26.65
2022-10-09T10:59:56.624Z,25.75
2022-10-09T11:03:02.844Z,26.09
2022-10-09T11:05:46.003Z,25.30
2022-10-09T11:08:31.434Z,25.14
2022-10-09T11:11:08.506Z,24.10
2022-10-09T11:13:52.622Z,24.82
2022-10-09T11:16:38.204Z,25.16
2022-10-09T11:19:24.365Z,25.74
2022-10-09T11:22:03.748Z,27.49
2022-10-09T11:25:00.804Z,27.50
2022-10-09T11:27:37.727Z,27.99
2022-10-09T11:30:12.831Z,27.63
2022-10-09T11:32:55.840Z,27.00
2022-10-09T11:35:27.091Z,26.64
2022-10-09T11:38:03.300Z,24.36
2022-10-09T11:40:39.425Z,23.74
2022-10-09T11:43:25.095Z,24.25
2022-10-09T11:46:01.993Z,26.55
2022-10-09T11:48:40.320Z,25.64
2022-10-09T11:51:19.157Z,23.79
2022-10-09T11:53:50.117Z,23.45
2022-10-09T11:56:27.378Z,24.51
2022-10-09T11:59:02.478Z,26.40
2022-10-09T12:01:35.372Z,26.13
2022-10-09T12:04:08.928Z,24.73
2022-10-09T12:06:49.393Z,23.77
2022-10-09T12:09:23.878Z,22.50
2022-10-09T12:12:07.259Z,20.93
2022-10-09T12:14:38.729Z,19.87
2022-10-09T12:17:19.365Z,20.40
2022-10-09T12:19:49.484Z,19.63
2022-10-09T12:22:23.985Z,20.80
2022-10-09T12:24:58.532Z,19.83
2022-10-09T12:27:34.998Z,17.78
2022-10-09T12:30:22.568Z,15.64
2022-10-09T12:32:57.995Z,14.46
2022-10-09T12:35:32.132Z,14.51
2022-10-09T12:38:02.064Z,16.42
2022-10-09T12:40:34.777Z,19.42
2022-10-09T12:43:10.707Z,21.40
2022-10-09T12:45:46.813Z,22.40
2022-10-09T12:48:21.192Z,23.63
2022-10-09T12:50:51.535Z,25.01
2022-10-09T12:53:23.165Z,26.42
2022-10-09T12:55:55.448Z,27.13
2022-10-09T12:58:31.344Z,27.30
2022-10-09T13:01:03.852Z,28.58
2022-10-09T13:03:38.221Z,29.15
2022-10-09T13:06:10.669Z,30.01
2022-10-09T13:08:42.191Z,31.15
2022-10-09T13:11:14.671Z,31.75
2022-10-09T13:13:51.967Z,32.31
2022-10-09T13:16:21.836Z,32.57
2022-10-09T13:18:58.695Z,32.40
2022-10-09T13:21:34.268Z,31.06
2022-10-09T13:24:13.500Z,31.18
2022-10-09T13:26:46.611Z,31.50
2022-10-09T13:29:19.101Z,31.83
2022-10-09T13:31:48.873Z,32.16
2022-10-09T13:34:19.413Z,31.77
2022-10-09T13:36:49.168Z,31.30
2022-10-09T13:39:19.947Z,30.91
2022-10-09T13:41:55.652Z,30.85
2022-10-09T13:44:28.646Z,32.02
2022-10-09T13:47:01.289Z,32.00
2022-10-09T13:49:31.032Z,31.77
2022-10-09T13:52:00.842Z,32.22
2022-10-09T13:54:30.768Z,32.78
2022-10-09T13:57:00.703Z,31.76
2022-10-09T13:59:33.892Z,32.21
2022-10-09T14:02:03.716Z,33.19
2022-10-09T14:04:33.431Z,32.75
2022-10-09T14:07:03.398Z,33.30
2022-10-09T14:09:33.480Z,33.87
2022-10-09T14:12:03.486Z,33.94
2022-10-09T14:14:35.991Z,34.03
2022-10-09T14:17:05.989Z,34.22
2022-10-09T14:19:35.774Z,34.00
2022-10-09T14:22:05.558Z,33.52
2022-10-09T14:24:35.832Z,33.89
2022-10-09T14:27:05.660Z,34.21
2022-10-09T14:29:38.572Z,34.58
2022-10-09T14:32:08.823Z,34.41
2022-10-09T14:34:38.576Z,34.55
2022-10-09T14:37:18.848Z,35.04
2022-10-09T14:39:58.112Z,35.48
2022-10-09T14:42:28.122Z,35.18
2022-10-09T14:45:00.564Z,35.51
2022-10-09T14:47:30.305Z,35.34
2022-10-09T14:50:00.105Z,35.07
2022-10-09T14:52:30.729Z,35.59
2022-10-09T14:55:00.554Z,35.67
2022-10-09T14:57:35.178Z,35.41
2022-10-09T15:00:09.408Z,35.65
2022-10-09T15:02:39.142Z,35.80
2022-10-09T15:05:09.234Z,36.15
2022-10-09T15:07:39.018Z,36.24
2022-10-09T15:10:09.669Z,36.49
2022-10-09T15:12:39.491Z,36.20
2022-10-09T15:15:12.934Z,36.23
2022-10-09T15:17:42.825Z,36.26
2022-10-09T15:20:12.907Z,36.13
2022-10-09T15:22:42.626Z,36.30
2022-10-09T15:25:15.726Z,36.33
2022-10-09T15:27:45.639Z,36.51
2022-10-09T15:30:18.305Z,36.68
2022-10-09T15:32:48.096Z,36.35
2022-10-09T15:35:18.249Z,36.49
2022-10-09T15:37:49.482Z,36.29
2022-10-09T15:40:21.221Z,36.44
2022-10-09T15:42:53.906Z,37.06
2022-10-09T15:45:26.310Z,36.85
2022-10-09T15:47:56.167Z,36.83
2022-10-09T15:50:26.034Z,37.06
2022-10-09T15:52:57.654Z,36.82
2022-10-09T15:55:27.556Z,36.81
2022-10-09T15:57:57.586Z,37.09
2022-10-09T16:00:30.010Z,37.06
2022-10-09T16:02:59.808Z,37.12
2022-10-09T16:05:29.780Z,37.22
2022-10-09T16:07:59.735Z,37.20
2022-10-09T16:10:29.622Z,37.48
2022-10-09T16:12:59.454Z,37.15
2022-10-09T16:15:31.759Z,37.48
2022-10-09T16:18:01.545Z,37.72
2022-10-09T16:20:31.404Z,37.63
2022-10-09T16:23:01.168Z,37.29
2022-10-09T16:25:30.974Z,37.91
2022-10-09T16:28:00.800Z,38.09
2022-10-09T16:30:33.450Z,38.38
2022-10-09T16:33:03.273Z,37.92
2022-10-09T16:35:33.272Z,38.07
2022-10-09T16:38:03.173Z,37.70
2022-10-09T16:41:00.454Z,38.07
2022-10-09T16:43:23.018Z,38.42
2022-10-09T16:45:55.366Z,38.33
2022-10-09T16:48:25.200Z,38.06
2022-10-09T16:50:54.921Z,38.15
2022-10-09T16:53:24.747Z,38.34
2022-10-09T16:55:54.571Z,38.83
2022-10-09T16:58:24.637Z,38.48
2022-10-09T17:01:06.117Z,38.53
2022-10-09T17:03:40.518Z,38.69
2022-10-09T17:06:12.242Z,38.84
2022-10-09T17:08:42.240Z,38.79
2022-10-09T17:11:13.333Z,38.97
2022-10-09T17:13:43.785Z,39.09
2022-10-09T17:16:19.025Z,39.05
2022-10-09T17:18:49.656Z,38.82
2022-10-09T17:21:21.150Z,39.07
2022-10-09T17:23:51.243Z,39.01
2022-10-09T17:26:22.382Z,39.13
2022-10-09T17:28:52.392Z,39.41
2022-10-09T17:31:26.941Z,39.27
2022-10-09T17:34:00.236Z,39.28
2022-10-09T17:36:32.465Z,39.42
2022-10-09T17:39:02.446Z,39.29
2022-10-09T17:41:32.353Z,39.74
2022-10-09T17:44:02.655Z,39.53
2022-10-09T17:46:35.515Z,40.12
2022-10-09T17:49:05.450Z,39.75
2022-10-09T17:51:36.932Z,40.04
2022-10-09T17:54:12.126Z,39.92
2022-10-09T17:56:42.852Z,40.05
2022-10-09T17:59:13.945Z,40.33
2022-10-09T18:01:47.386Z,39.88
2022-10-09T18:04:18.776Z,40.19
2022-10-09T18:06:48.810Z,40.07
2022-10-09T18:09:18.607Z,40.34
2022-10-09T18:11:48.405Z,40.37
2022-10-09T18:14:18.220Z,40.53
2022-10-09T18:16:50.791Z,40.22
2022-10-09T18:19:21.859Z,40.29
2022-10-09T18:21:52.408Z,40.44
2022-10-09T18:24:22.226Z,40.67
2022-10-09T18:26:52.049Z,40.46
2022-10-09T18:29:21.862Z,40.40
2022-10-09T18:31:55.775Z,40.33
2022-10-09T18:34:25.783Z,40.54
2022-10-09T18:36:55.575Z,40.68
2022-10-09T18:39:25.383Z,40.55
2022-10-09T18:41:58.205Z,40.49
2022-10-09T18:44:28.161Z,40.36
2022-10-09T18:47:02.270Z,40.42
2022-10-09T18:49:33.925Z,40.53
2022-10-09T18:52:05.895Z,40.49
2022-10-09T18:54:35.656Z,40.76
2022-10-09T18:57:06.604Z,40.60
2022-10-09T18:59:39.702Z,40.70
2022-10-09T19:02:12.080Z,40.68
2022-10-09T19:04:42.286Z,40.79
2022-10-09T19:07:12.089Z,40.92
2022-10-09T19:09:43.469Z,40.83
2022-10-09T19:12:13.254Z,40.94
2022-10-09T19:14:43.078Z,40.78
2022-10-09T19:17:16.035Z,41.05
2022-10-09T19:19:45.844Z,40.77
2022-10-09T19:22:20.004Z,41.31
2022-10-09T19:24:52.841Z,41.00
2022-10-09T19:27:26.466Z,41.40
2022-10-09T19:29:56.649Z,41.36
2022-10-09T19:32:29.239Z,41.31
2022-10-09T19:34:59.276Z,41.51
2022-10-09T19:37:29.985Z,41.48
2022-10-09T19:40:00.047Z,41.62
2022-10-09T19:42:30.575Z,41.55
2022-10-09T19:45:00.962Z,41.61
2022-10-09T19:47:33.531Z,41.76
2022-10-09T19:50:03.369Z,41.60
2022-10-09T19:52:33.136Z,41.56
2022-10-09T19:55:02.970Z,41.63
2022-10-09T19:57:32.777Z,41.63
2022-10-09T20:00:02.878Z,41.92
2022-10-09T20:02:37.058Z,42.08
2022-10-09T20:05:07.914Z,41.83
2022-10-09T20:07:37.765Z,42.00
2022-10-09T20:10:08.463Z,42.00
2022-10-09T20:12:38.784Z,42.18
2022-10-09T20:15:10.172Z,42.18
2022-10-09T20:17:42.574Z,42.18
2022-10-09T20:20:13.333Z,42.32
2022-10-09T20:22:43.252Z,41.99
2022-10-09T20:25:13.076Z,42.20
2022-10-09T20:27:42.846Z,42.25
2022-10-09T20:30:14.332Z,42.38
2022-10-09T20:32:49.234Z,42.47
2022-10-09T20:35:19.379Z,42.31
2022-10-09T20:37:49.181Z,42.54
2022-10-09T20:40:19.990Z,42.51
2022-10-09T20:42:49.998Z,42.45
2022-10-09T20:45:20.165Z,42.71
2022-10-09T20:47:52.798Z,42.65
2022-10-09T20:50:22.572Z,42.75
2022-10-09T20:52:52.671Z,42.63
2022-10-09T20:55:22.604Z,42.79
2022-10-09T20:57:54.907Z,42.61
2022-10-09T21:00:25.227Z,42.64
2022-10-09T21:02:57.626Z,42.92
2022-10-09T21:05:27.388Z,42.59
2022-10-09T21:07:57.182Z,42.85
2022-10-09T21:10:26.983Z,42.83
2022-10-09T21:12:56.792Z,42.97
2022-10-09T21:15:26.602Z,42.82
2022-10-09T21:17:59.048Z,42.85
2022-10-09T21:20:28.887Z,42.75
2022-10-09T21:22:58.680Z,42.91
2022-10-09T21:25:28.510Z,42.93
2022-10-09T21:27:58.240Z,42.72
2022-10-09T21:30:28.638Z,42.72
2022-10-09T21:33:01.012Z,42.81
2022-10-09T21:35:30.796Z,43.07
2022-10-09T21:38:00.573Z,42.98
2022-10-09T21:40:30.355Z,43.09
2022-10-09T21:43:00.104Z,43.02
2022-10-09T21:45:29.939Z,43.10
2022-10-09T21:48:02.444Z,43.12
2022-10-09T21:50:33.047Z,43.14
2022-10-09T21:53:03.486Z,43.26
2022-10-09T21:55:33.347Z,43.19
2022-10-09T21:58:03.136Z,43.19
2022-10-09T22:00:33.136Z,43.43
2022-10-09T22:03:05.916Z,43.20
2022-10-09T22:05:35.868Z,43.41
2022-10-09T22:08:05.874Z,43.27
2022-10-09T22:10:35.708Z,43.30
2022-10-09T22:13:05.615Z,43.62
2022-10-09T22:15:35.418Z,43.63
2022-10-09T22:18:07.887Z,43.68
2022-10-09T22:20:42.368Z,43.57
2022-10-09T22:23:13.100Z,43.49
2022-10-09T22:25:42.896Z,43.65
2022-10-09T22:28:12.880Z,43.76
2022-10-09T22:30:42.652Z,43.70
2022-10-09T22:33:16.287Z,43.97
2022-10-09T22:35:46.218Z,43.69
2022-10-09T22:38:15.996Z,43.68
2022-10-09T22:40:47.348Z,43.71
2022-10-09T22:43:17.163Z,43.80
2022-10-09T22:45:46.880Z,43.72
2022-10-09T22:48:19.217Z,43.80
2022-10-09T22:50:48.940Z,43.80
2022-10-09T22:53:18.725Z,43.75
2022-10-09T22:55:48.474Z,43.87
2022-10-09T22:58:18.722Z,43.71
2022-10-09T23:00:48.683Z,43.99
2022-10-09T23:03:21.889Z,43.90
2022-10-09T23:05:51.671Z,43.91
2022-10-09T23:08:21.431Z,43.79
2022-10-09T23:10:52.995Z,44.05
2022-10-09T23:13:22.749Z,44.07
2022-10-09T23:15:52.460Z,44.27
2022-10-09T23:18:25.390Z,44.25
2022-10-09T23:20:58.421Z,44.13
2022-10-09T23:23:29.645Z,44.12
2022-10-09T23:25:59.436Z,44.33
2022-10-09T23:28:29.699Z,44.33
2022-10-09T23:31:04.054Z,44.31
2022-10-09T23:33:36.871Z,44.34
2022-10-09T23:36:07.383Z,44.29
2022-10-09T23:38:37.525Z,44.50
2022-10-09T23:41:09.720Z,44.42
2022-10-09T23:43:41.033Z,44.43
2022-10-09T23:46:14.272Z,44.61
2022-10-09T23:48:47.885Z,44.59
2022-10-09T23:51:18.379Z,44.85
2022-10-09T23:53:48.536Z,44.78
2022-10-09T23:56:20.483Z,44.73
2022-10-09T23:58:50.238Z,44.82
